EWG7FH EDDB-LFLL
Flight info
| Callsign | EWG7FH |
|---|---|
| Flight time | 1h 28m |
| Altitude | 38000 |
| Route | KISUC Z117 ORTAG DCT BAMKI DCT IBAGA DCT DKB DCT TEDGO N869 NATOR DCT LUTIX DCT BENOT N869 MILPA |
| Aircraft | A20N/M-SDE2E3FGHIJ1RWXY/LB1 |
Departure
| Time | 2026-05-05 18:02 |
|---|---|
| Airport | Berlin Brandenburg Airport (EDDB) |
Arrival
| Time | 2026-05-05 19:30 |
|---|---|
| Airport | Lyon Saint-Exupéry Airport (LFLL) |
| Time | Latitude | Longitude | Altitude | Speed | Heading |
|---|---|---|---|---|---|
| 2026-05-05 16:55 | 52.36094 | 13.51178 | 165 ft | 0 kts | 338° |
| 2026-05-05 17:49 | 52.36084 | 13.51185 | 165 ft | 2 kts | 338° |
| 2026-05-05 17:49 | 52.36070 | 13.51194 | 165 ft | 2 kts | 338° |
| 2026-05-05 17:49 | 52.36057 | 13.51203 | 165 ft | 1 kts | 338° |
| 2026-05-05 17:49 | 52.36047 | 13.51209 | 165 ft | 2 kts | 330° |
| 2026-05-05 17:50 | 52.36036 | 13.51224 | 165 ft | 2 kts | 307° |
| 2026-05-05 17:50 | 52.36029 | 13.51246 | 165 ft | 2 kts | 287° |
| 2026-05-05 17:50 | 52.36026 | 13.51270 | 165 ft | 2 kts | 267° |
| 2026-05-05 17:50 | 52.36028 | 13.51289 | 165 ft | 0 kts | 251° |
| 2026-05-05 17:51 | 52.36031 | 13.51300 | 165 ft | 0 kts | 248° |
| 2026-05-05 17:54 | 52.36030 | 13.51298 | 165 ft | 0 kts | 248° |
| 2026-05-05 17:54 | 52.36026 | 13.51279 | 165 ft | 3 kts | 248° |
| 2026-05-05 17:54 | 52.36013 | 13.51225 | 165 ft | 6 kts | 249° |
| 2026-05-05 17:54 | 52.35994 | 13.51140 | 165 ft | 9 kts | 249° |
| 2026-05-05 17:55 | 52.35970 | 13.51037 | 165 ft | 10 kts | 248° |
| 2026-05-05 17:55 | 52.35944 | 13.50933 | 165 ft | 9 kts | 248° |
| 2026-05-05 17:55 | 52.35921 | 13.50839 | 165 ft | 8 kts | 247° |
| 2026-05-05 17:55 | 52.35909 | 13.50792 | 165 ft | 0 kts | 248° |
| 2026-05-05 17:56 | 52.35905 | 13.50776 | 165 ft | 2 kts | 248° |
| 2026-05-05 17:56 | 52.35898 | 13.50745 | 165 ft | 3 kts | 248° |
| 2026-05-05 17:56 | 52.35886 | 13.50698 | 165 ft | 5 kts | 248° |
| 2026-05-05 17:56 | 52.35867 | 13.50641 | 165 ft | 6 kts | 221° |
| 2026-05-05 17:57 | 52.35819 | 13.50633 | 165 ft | 7 kts | 166° |
| 2026-05-05 17:57 | 52.35771 | 13.50611 | 165 ft | 8 kts | 240° |
| 2026-05-05 17:57 | 52.35745 | 13.50504 | 165 ft | 12 kts | 249° |
| 2026-05-05 17:57 | 52.35709 | 13.50352 | 165 ft | 14 kts | 248° |
| 2026-05-05 17:58 | 52.35671 | 13.50190 | 165 ft | 15 kts | 249° |
| 2026-05-05 17:58 | 52.35631 | 13.50020 | 165 ft | 17 kts | 248° |
| 2026-05-05 17:58 | 52.35584 | 13.49827 | 165 ft | 19 kts | 248° |
| 2026-05-05 17:58 | 52.35534 | 13.49615 | 165 ft | 20 kts | 248° |
| 2026-05-05 17:59 | 52.35482 | 13.49395 | 165 ft | 20 kts | 249° |
| 2026-05-05 17:59 | 52.35431 | 13.49179 | 165 ft | 20 kts | 249° |
| 2026-05-05 17:59 | 52.35378 | 13.48954 | 165 ft | 21 kts | 248° |
| 2026-05-05 17:59 | 52.35325 | 13.48732 | 165 ft | 20 kts | 248° |
| 2026-05-05 18:00 | 52.35281 | 13.48546 | 165 ft | 13 kts | 248° |
| 2026-05-05 18:00 | 52.35207 | 13.48489 | 165 ft | 13 kts | 162° |
| 2026-05-05 18:00 | 52.35128 | 13.48537 | 165 ft | 11 kts | 153° |
| 2026-05-05 18:00 | 52.35097 | 13.48656 | 165 ft | 12 kts | 98° |
| 2026-05-05 18:01 | 52.35086 | 13.48800 | 165 ft | 13 kts | 97° |
| 2026-05-05 18:01 | 52.35072 | 13.48958 | 165 ft | 18 kts | 94° |
| 2026-05-05 18:01 | 52.35131 | 13.49306 | 165 ft | 60 kts | 69° |
| 2026-05-05 18:01 | 52.35364 | 13.50297 | 166 ft | 124 kts | 68° |
| 2026-05-05 18:02 | 52.35740 | 13.51855 | 363 ft | 156 kts | 67° |
| 2026-05-05 18:02 | 52.36073 | 13.53539 | 938 ft | 159 kts | 83° |
| 2026-05-05 18:02 | 52.35677 | 13.55177 | 1562 ft | 170 kts | 134° |
| 2026-05-05 18:02 | 52.34562 | 13.56027 | 1997 ft | 190 kts | 157° |
| 2026-05-05 18:03 | 52.33189 | 13.56391 | 2425 ft | 211 kts | 186° |
| 2026-05-05 18:03 | 52.31829 | 13.55312 | 2808 ft | 234 kts | 220° |
| 2026-05-05 18:03 | 52.30539 | 13.53471 | 3346 ft | 252 kts | 220° |
| 2026-05-05 18:03 | 52.29163 | 13.51577 | 4002 ft | 264 kts | 219° |
| 2026-05-05 18:04 | 52.27685 | 13.49615 | 4669 ft | 277 kts | 219° |
| 2026-05-05 18:04 | 52.26469 | 13.47147 | 5579 ft | 279 kts | 249° |
| 2026-05-05 18:04 | 52.26169 | 13.44114 | 6577 ft | 276 kts | 269° |
| 2026-05-05 18:04 | 52.25946 | 13.40994 | 7488 ft | 279 kts | 250° |
| 2026-05-05 18:05 | 52.25092 | 13.38193 | 8349 ft | 282 kts | 240° |
| 2026-05-05 18:05 | 52.24128 | 13.35389 | 9239 ft | 283 kts | 243° |
| 2026-05-05 18:05 | 52.23274 | 13.32505 | 10108 ft | 283 kts | 246° |
| 2026-05-05 18:05 | 52.22480 | 13.29473 | 10665 ft | 296 kts | 248° |
| 2026-05-05 18:06 | 52.21700 | 13.26278 | 11051 ft | 313 kts | 249° |
| 2026-05-05 18:06 | 52.21151 | 13.24006 | 11295 ft | 324 kts | 248° |
| 2026-05-05 18:06 | 52.19967 | 13.19303 | 11825 ft | 344 kts | 247° |
| 2026-05-05 18:06 | 52.19047 | 13.15681 | 12529 ft | 346 kts | 247° |
| 2026-05-05 18:07 | 52.18127 | 13.12042 | 13221 ft | 349 kts | 247° |
| 2026-05-05 18:07 | 52.17206 | 13.08413 | 13858 ft | 353 kts | 247° |
| 2026-05-05 18:07 | 52.16264 | 13.04685 | 14478 ft | 355 kts | 248° |
| 2026-05-05 18:07 | 52.15327 | 13.00963 | 15089 ft | 360 kts | 248° |
| 2026-05-05 18:08 | 52.14375 | 12.97185 | 15724 ft | 364 kts | 248° |
| 2026-05-05 18:08 | 52.13420 | 12.93418 | 16359 ft | 367 kts | 248° |
| 2026-05-05 18:08 | 52.12446 | 12.89585 | 17028 ft | 368 kts | 248° |
| 2026-05-05 18:08 | 52.11460 | 12.85710 | 17667 ft | 371 kts | 247° |
| 2026-05-05 18:09 | 52.10482 | 12.81874 | 18240 ft | 375 kts | 247° |
| 2026-05-05 18:09 | 52.09477 | 12.77939 | 18835 ft | 376 kts | 247° |
| 2026-05-05 18:09 | 52.08479 | 12.74037 | 19453 ft | 378 kts | 247° |
| 2026-05-05 18:09 | 52.07475 | 12.70118 | 20089 ft | 380 kts | 247° |
| 2026-05-05 18:10 | 52.06462 | 12.66171 | 20695 ft | 381 kts | 246° |
| 2026-05-05 18:10 | 52.05447 | 12.62224 | 21254 ft | 383 kts | 246° |
| 2026-05-05 18:10 | 52.04421 | 12.58239 | 21791 ft | 384 kts | 246° |
| 2026-05-05 18:10 | 52.03386 | 12.54226 | 22296 ft | 387 kts | 246° |
| 2026-05-05 18:11 | 52.02349 | 12.50208 | 22854 ft | 388 kts | 246° |
| 2026-05-05 18:11 | 52.01306 | 12.46178 | 23400 ft | 390 kts | 246° |
| 2026-05-05 18:11 | 52.00263 | 12.42164 | 23909 ft | 392 kts | 245° |
| 2026-05-05 18:11 | 51.99200 | 12.38080 | 24368 ft | 395 kts | 246° |
| 2026-05-05 18:12 | 51.98124 | 12.33932 | 24847 ft | 397 kts | 245° |
| 2026-05-05 18:12 | 51.97039 | 12.29753 | 25317 ft | 400 kts | 245° |
| 2026-05-05 18:12 | 51.95970 | 12.25632 | 25758 ft | 402 kts | 245° |
| 2026-05-05 18:12 | 51.94883 | 12.21444 | 26194 ft | 404 kts | 245° |
| 2026-05-05 18:13 | 51.93798 | 12.17279 | 26606 ft | 407 kts | 245° |
| 2026-05-05 18:13 | 51.92703 | 12.13071 | 27017 ft | 409 kts | 245° |
| 2026-05-05 18:13 | 51.91591 | 12.08811 | 27415 ft | 411 kts | 244° |
| 2026-05-05 18:13 | 51.90485 | 12.04579 | 27829 ft | 412 kts | 244° |
| 2026-05-05 18:14 | 51.89360 | 12.00295 | 28300 ft | 412 kts | 244° |
| 2026-05-05 18:14 | 51.88240 | 11.96035 | 28730 ft | 413 kts | 244° |
| 2026-05-05 18:14 | 51.87103 | 11.91795 | 29119 ft | 414 kts | 243° |
| 2026-05-05 18:14 | 51.85846 | 11.87672 | 29444 ft | 415 kts | 240° |
| 2026-05-05 18:15 | 51.84422 | 11.83582 | 29762 ft | 416 kts | 237° |
| 2026-05-05 18:15 | 51.82879 | 11.79665 | 30064 ft | 418 kts | 234° |
| 2026-05-05 18:15 | 51.81179 | 11.75831 | 30443 ft | 417 kts | 231° |
| 2026-05-05 18:15 | 51.79429 | 11.72142 | 30869 ft | 416 kts | 231° |
| 2026-05-05 18:16 | 51.77702 | 11.68487 | 31307 ft | 414 kts | 231° |
| 2026-05-05 18:16 | 51.75948 | 11.64781 | 31707 ft | 413 kts | 231° |
| 2026-05-05 18:16 | 51.74223 | 11.61147 | 32095 ft | 411 kts | 231° |
| 2026-05-05 18:16 | 51.72496 | 11.57539 | 32474 ft | 409 kts | 229° |
| 2026-05-05 18:17 | 51.70544 | 11.54254 | 32825 ft | 406 kts | 220° |
| 2026-05-05 18:17 | 51.68343 | 11.51480 | 33171 ft | 404 kts | 213° |
| 2026-05-05 18:17 | 51.65944 | 11.49201 | 33471 ft | 402 kts | 207° |
| 2026-05-05 18:17 | 51.63353 | 11.47421 | 33746 ft | 402 kts | 200° |
| 2026-05-05 18:18 | 51.60705 | 11.46144 | 34038 ft | 401 kts | 197° |
| 2026-05-05 18:18 | 51.58039 | 11.44968 | 34339 ft | 400 kts | 196° |
| 2026-05-05 18:18 | 51.55363 | 11.43809 | 34658 ft | 398 kts | 196° |
| 2026-05-05 18:18 | 51.52696 | 11.42660 | 34927 ft | 397 kts | 196° |
| 2026-05-05 18:19 | 51.50038 | 11.41509 | 35124 ft | 397 kts | 196° |
| 2026-05-05 18:19 | 51.47386 | 11.40368 | 35321 ft | 396 kts | 196° |
| 2026-05-05 18:19 | 51.44719 | 11.39224 | 35481 ft | 396 kts | 196° |
| 2026-05-05 18:19 | 51.42060 | 11.38080 | 35613 ft | 397 kts | 196° |
| 2026-05-05 18:20 | 51.39417 | 11.36945 | 35767 ft | 397 kts | 196° |
| 2026-05-05 18:20 | 51.36734 | 11.35795 | 35923 ft | 397 kts | 196° |
| 2026-05-05 18:20 | 51.34073 | 11.34634 | 36037 ft | 398 kts | 197° |
| 2026-05-05 18:20 | 51.31459 | 11.33326 | 36164 ft | 398 kts | 197° |
| 2026-05-05 18:21 | 51.28816 | 11.31995 | 36268 ft | 399 kts | 197° |
| 2026-05-05 18:21 | 51.23522 | 11.29326 | 36482 ft | 401 kts | 197° |
| 2026-05-05 18:22 | 51.18209 | 11.26651 | 36654 ft | 403 kts | 197° |
| 2026-05-05 18:22 | 51.12871 | 11.23972 | 36849 ft | 404 kts | 197° |
| 2026-05-05 18:22 | 51.10197 | 11.22631 | 36951 ft | 405 kts | 197° |
| 2026-05-05 18:23 | 51.07495 | 11.21278 | 37043 ft | 406 kts | 197° |
| 2026-05-05 18:23 | 51.02124 | 11.18594 | 37158 ft | 408 kts | 197° |
| 2026-05-05 18:24 | 50.96690 | 11.15882 | 37287 ft | 410 kts | 197° |
| 2026-05-05 18:24 | 50.91277 | 11.13187 | 37454 ft | 411 kts | 197° |
| 2026-05-05 18:25 | 50.85823 | 11.10477 | 37624 ft | 412 kts | 197° |
| 2026-05-05 18:25 | 50.80363 | 11.07772 | 37762 ft | 413 kts | 197° |
| 2026-05-05 18:26 | 50.74921 | 11.05084 | 37753 ft | 414 kts | 197° |
| 2026-05-05 18:26 | 50.69447 | 11.02382 | 37757 ft | 414 kts | 197° |
| 2026-05-05 18:27 | 50.63957 | 10.99657 | 37755 ft | 414 kts | 197° |
| 2026-05-05 18:27 | 50.58465 | 10.96933 | 37763 ft | 414 kts | 197° |
| 2026-05-05 18:28 | 50.50258 | 10.92876 | 37778 ft | 414 kts | 197° |
| 2026-05-05 18:28 | 50.44770 | 10.90166 | 37766 ft | 414 kts | 197° |
| 2026-05-05 18:29 | 50.39296 | 10.87460 | 37774 ft | 414 kts | 197° |
| 2026-05-05 18:29 | 50.33842 | 10.84779 | 37759 ft | 414 kts | 197° |
| 2026-05-05 18:30 | 50.28356 | 10.82093 | 37777 ft | 414 kts | 197° |
| 2026-05-05 18:30 | 50.22864 | 10.79407 | 37758 ft | 415 kts | 197° |
| 2026-05-05 18:31 | 50.17378 | 10.76731 | 37777 ft | 415 kts | 196° |
| 2026-05-05 18:31 | 50.11848 | 10.74044 | 37777 ft | 415 kts | 197° |
| 2026-05-05 18:32 | 50.06526 | 10.70781 | 37771 ft | 417 kts | 207° |
| 2026-05-05 18:32 | 50.01773 | 10.65572 | 37767 ft | 417 kts | 216° |
| 2026-05-05 18:33 | 49.97250 | 10.59984 | 37753 ft | 417 kts | 216° |
| 2026-05-05 18:33 | 49.92722 | 10.54432 | 37758 ft | 416 kts | 216° |
| 2026-05-05 18:34 | 49.88177 | 10.48891 | 37750 ft | 416 kts | 215° |
| 2026-05-05 18:34 | 49.83613 | 10.43374 | 37760 ft | 416 kts | 216° |
| 2026-05-05 18:35 | 49.79083 | 10.37861 | 37755 ft | 417 kts | 216° |
| 2026-05-05 18:35 | 49.74541 | 10.32299 | 37754 ft | 417 kts | 215° |
| 2026-05-05 18:36 | 49.70024 | 10.26767 | 37769 ft | 417 kts | 215° |
| 2026-05-05 18:36 | 49.65503 | 10.21258 | 37769 ft | 417 kts | 216° |
| 2026-05-05 18:37 | 49.60976 | 10.15737 | 37767 ft | 417 kts | 215° |
| 2026-05-05 18:37 | 49.56409 | 10.10198 | 37777 ft | 417 kts | 216° |
| 2026-05-05 18:38 | 49.51881 | 10.04712 | 37769 ft | 417 kts | 216° |
| 2026-05-05 18:38 | 49.47331 | 9.99210 | 37770 ft | 417 kts | 216° |
| 2026-05-05 18:39 | 49.42771 | 9.93703 | 37782 ft | 418 kts | 216° |
| 2026-05-05 18:39 | 49.38225 | 9.88249 | 37766 ft | 418 kts | 216° |
| 2026-05-05 18:40 | 49.33644 | 9.82752 | 37781 ft | 418 kts | 216° |
| 2026-05-05 18:40 | 49.29082 | 9.77330 | 37785 ft | 418 kts | 216° |
| 2026-05-05 18:41 | 49.24497 | 9.71890 | 37784 ft | 418 kts | 216° |
| 2026-05-05 18:41 | 49.19911 | 9.66455 | 37808 ft | 419 kts | 216° |
| 2026-05-05 18:42 | 49.15312 | 9.61016 | 37793 ft | 418 kts | 216° |
| 2026-05-05 18:42 | 49.10712 | 9.55592 | 37797 ft | 418 kts | 216° |
| 2026-05-05 18:43 | 49.06135 | 9.50205 | 37798 ft | 419 kts | 216° |
| 2026-05-05 18:43 | 49.01545 | 9.44816 | 37780 ft | 419 kts | 216° |
| 2026-05-05 18:44 | 48.96915 | 9.39390 | 37796 ft | 419 kts | 216° |
| 2026-05-05 18:44 | 48.92315 | 9.34015 | 37804 ft | 419 kts | 216° |
| 2026-05-05 18:45 | 48.87694 | 9.28624 | 37803 ft | 419 kts | 216° |
| 2026-05-05 18:45 | 48.83076 | 9.23249 | 37801 ft | 419 kts | 216° |
| 2026-05-05 18:46 | 48.78455 | 9.17884 | 37796 ft | 419 kts | 216° |
| 2026-05-05 18:46 | 48.73860 | 9.12562 | 37816 ft | 418 kts | 216° |
| 2026-05-05 18:47 | 48.69237 | 9.07227 | 37806 ft | 418 kts | 216° |
| 2026-05-05 18:47 | 48.64616 | 9.01914 | 37810 ft | 419 kts | 216° |
| 2026-05-05 18:48 | 48.59998 | 8.96614 | 37823 ft | 419 kts | 216° |
| 2026-05-05 18:48 | 48.55368 | 8.91308 | 37818 ft | 419 kts | 216° |
| 2026-05-05 18:49 | 48.50751 | 8.86027 | 37819 ft | 419 kts | 216° |
| 2026-05-05 18:49 | 48.46109 | 8.80730 | 37823 ft | 419 kts | 216° |
| 2026-05-05 18:50 | 48.41493 | 8.75473 | 37821 ft | 419 kts | 216° |
| 2026-05-05 18:50 | 48.36830 | 8.70174 | 37822 ft | 419 kts | 216° |
| 2026-05-05 18:51 | 48.32211 | 8.64939 | 37814 ft | 419 kts | 216° |
| 2026-05-05 18:51 | 48.27571 | 8.59690 | 37832 ft | 419 kts | 216° |
| 2026-05-05 18:52 | 48.22917 | 8.54437 | 37835 ft | 419 kts | 216° |
| 2026-05-05 18:52 | 48.18271 | 8.49206 | 37833 ft | 419 kts | 216° |
| 2026-05-05 18:53 | 48.13646 | 8.44009 | 37834 ft | 419 kts | 216° |
| 2026-05-05 18:53 | 48.08986 | 8.38785 | 37838 ft | 419 kts | 216° |
| 2026-05-05 18:54 | 48.04336 | 8.33572 | 37836 ft | 419 kts | 216° |
| 2026-05-05 18:54 | 47.99703 | 8.28383 | 37852 ft | 419 kts | 216° |
| 2026-05-05 18:55 | 47.95046 | 8.23178 | 37852 ft | 419 kts | 216° |
| 2026-05-05 18:55 | 47.90398 | 8.17993 | 37847 ft | 419 kts | 216° |
| 2026-05-05 18:56 | 47.85726 | 8.12792 | 37855 ft | 419 kts | 216° |
| 2026-05-05 18:56 | 47.81060 | 8.07611 | 37851 ft | 418 kts | 216° |
| 2026-05-05 18:57 | 47.76427 | 8.02477 | 37856 ft | 419 kts | 216° |
| 2026-05-05 18:57 | 47.71778 | 7.97338 | 37853 ft | 418 kts | 216° |
| 2026-05-05 18:58 | 47.67123 | 7.92204 | 37858 ft | 418 kts | 216° |
| 2026-05-05 18:58 | 47.62469 | 7.87084 | 37856 ft | 418 kts | 216° |
| 2026-05-05 18:59 | 47.57786 | 7.81944 | 37856 ft | 418 kts | 216° |
| 2026-05-05 18:59 | 47.53143 | 7.76856 | 37851 ft | 418 kts | 216° |
| 2026-05-05 19:00 | 47.48489 | 7.71769 | 37860 ft | 418 kts | 217° |
| 2026-05-05 19:00 | 47.43818 | 7.66671 | 37854 ft | 418 kts | 216° |
| 2026-05-05 19:01 | 47.39161 | 7.61606 | 37845 ft | 418 kts | 216° |
| 2026-05-05 19:01 | 47.34483 | 7.56524 | 37852 ft | 418 kts | 216° |
| 2026-05-05 19:02 | 47.29811 | 7.51459 | 37861 ft | 418 kts | 217° |
| 2026-05-05 19:02 | 47.25165 | 7.46435 | 37908 ft | 417 kts | 216° |
| 2026-05-05 19:03 | 47.20524 | 7.41327 | 37889 ft | 417 kts | 219° |
| 2026-05-05 19:03 | 47.16206 | 7.35674 | 37867 ft | 417 kts | 225° |
| 2026-05-05 19:04 | 47.12324 | 7.29422 | 37863 ft | 417 kts | 230° |
| 2026-05-05 19:04 | 47.08703 | 7.22745 | 37863 ft | 417 kts | 230° |
| 2026-05-05 19:05 | 47.05114 | 7.16132 | 37860 ft | 417 kts | 230° |
| 2026-05-05 19:05 | 47.01492 | 7.09499 | 37865 ft | 417 kts | 230° |
| 2026-05-05 19:06 | 46.99706 | 7.06234 | 37744 ft | 413 kts | 230° |
| 2026-05-05 19:06 | 46.97906 | 7.02944 | 37337 ft | 411 kts | 230° |
| 2026-05-05 19:06 | 46.96150 | 6.99738 | 36806 ft | 409 kts | 230° |
| 2026-05-05 19:06 | 46.94391 | 6.96527 | 36327 ft | 405 kts | 230° |
| 2026-05-05 19:07 | 46.92618 | 6.93299 | 35823 ft | 402 kts | 230° |
| 2026-05-05 19:07 | 46.90895 | 6.90168 | 35269 ft | 401 kts | 230° |
| 2026-05-05 19:07 | 46.89153 | 6.87007 | 34694 ft | 401 kts | 230° |
| 2026-05-05 19:07 | 46.87396 | 6.83825 | 34147 ft | 399 kts | 230° |
| 2026-05-05 19:08 | 46.85680 | 6.80713 | 33717 ft | 397 kts | 230° |
| 2026-05-05 19:08 | 46.83961 | 6.77600 | 33238 ft | 397 kts | 230° |
| 2026-05-05 19:08 | 46.82225 | 6.74461 | 32626 ft | 399 kts | 230° |
| 2026-05-05 19:08 | 46.80493 | 6.71328 | 31921 ft | 402 kts | 230° |
| 2026-05-05 19:09 | 46.78734 | 6.68153 | 31180 ft | 405 kts | 230° |
| 2026-05-05 19:09 | 46.76960 | 6.64955 | 30385 ft | 408 kts | 230° |
| 2026-05-05 19:09 | 46.75167 | 6.61729 | 29475 ft | 411 kts | 230° |
| 2026-05-05 19:09 | 46.73382 | 6.58524 | 28571 ft | 414 kts | 230° |
| 2026-05-05 19:10 | 46.71516 | 6.55368 | 27839 ft | 411 kts | 227° |
| 2026-05-05 19:10 | 46.69633 | 6.52267 | 27288 ft | 406 kts | 228° |
| 2026-05-05 19:10 | 46.67801 | 6.49241 | 26678 ft | 401 kts | 228° |
| 2026-05-05 19:10 | 46.65959 | 6.46204 | 26014 ft | 398 kts | 228° |
| 2026-05-05 19:11 | 46.64156 | 6.43240 | 25403 ft | 395 kts | 227° |
| 2026-05-05 19:11 | 46.62425 | 6.40158 | 24768 ft | 393 kts | 234° |
| 2026-05-05 19:11 | 46.60951 | 6.36811 | 24152 ft | 390 kts | 237° |
| 2026-05-05 19:11 | 46.59572 | 6.33497 | 23536 ft | 388 kts | 237° |
| 2026-05-05 19:12 | 46.58173 | 6.30146 | 22936 ft | 384 kts | 237° |
| 2026-05-05 19:12 | 46.56781 | 6.26853 | 22368 ft | 381 kts | 236° |
| 2026-05-05 19:12 | 46.55400 | 6.23618 | 21796 ft | 378 kts | 236° |
| 2026-05-05 19:12 | 46.54031 | 6.20434 | 21212 ft | 376 kts | 236° |
| 2026-05-05 19:13 | 46.52645 | 6.17228 | 20639 ft | 370 kts | 236° |
| 2026-05-05 19:13 | 46.51281 | 6.14081 | 20031 ft | 369 kts | 236° |
| 2026-05-05 19:13 | 46.49925 | 6.10963 | 19438 ft | 366 kts | 236° |
| 2026-05-05 19:13 | 46.48575 | 6.07864 | 18865 ft | 363 kts | 236° |
| 2026-05-05 19:14 | 46.47243 | 6.04815 | 18294 ft | 360 kts | 236° |
| 2026-05-05 19:14 | 46.45905 | 6.01755 | 17723 ft | 358 kts | 236° |
| 2026-05-05 19:14 | 46.44583 | 5.98729 | 17171 ft | 355 kts | 236° |
| 2026-05-05 19:14 | 46.43269 | 5.95729 | 16632 ft | 351 kts | 236° |
| 2026-05-05 19:15 | 46.41974 | 5.92776 | 16087 ft | 349 kts | 236° |
| 2026-05-05 19:15 | 46.40684 | 5.89840 | 15529 ft | 348 kts | 236° |
| 2026-05-05 19:15 | 46.39395 | 5.86906 | 14994 ft | 345 kts | 236° |
| 2026-05-05 19:15 | 46.38117 | 5.83999 | 14458 ft | 343 kts | 235° |
| 2026-05-05 19:16 | 46.36844 | 5.81104 | 13927 ft | 340 kts | 236° |
| 2026-05-05 19:16 | 46.35586 | 5.78203 | 13382 ft | 339 kts | 236° |
| 2026-05-05 19:16 | 46.34359 | 5.75358 | 12846 ft | 337 kts | 236° |
| 2026-05-05 19:16 | 46.33117 | 5.72478 | 12339 ft | 334 kts | 236° |
| 2026-05-05 19:17 | 46.31910 | 5.69684 | 11832 ft | 331 kts | 237° |
| 2026-05-05 19:17 | 46.30688 | 5.66854 | 11297 ft | 330 kts | 237° |
| 2026-05-05 19:17 | 46.29478 | 5.64051 | 10790 ft | 327 kts | 237° |
| 2026-05-05 19:17 | 46.28267 | 5.61329 | 10282 ft | 325 kts | 233° |
| 2026-05-05 19:18 | 46.26804 | 5.58892 | 9785 ft | 321 kts | 226° |
| 2026-05-05 19:18 | 46.25279 | 5.56620 | 9565 ft | 310 kts | 225° |
| 2026-05-05 19:18 | 46.23791 | 5.54415 | 9351 ft | 299 kts | 225° |
| 2026-05-05 19:18 | 46.22383 | 5.52316 | 9162 ft | 288 kts | 226° |
| 2026-05-05 19:19 | 46.21028 | 5.50246 | 8970 ft | 278 kts | 227° |
| 2026-05-05 19:19 | 46.19743 | 5.48262 | 8754 ft | 270 kts | 227° |
| 2026-05-05 19:19 | 46.18476 | 5.46301 | 8420 ft | 267 kts | 227° |
| 2026-05-05 19:19 | 46.17215 | 5.44349 | 8027 ft | 266 kts | 228° |
| 2026-05-05 19:20 | 46.15960 | 5.42406 | 7646 ft | 265 kts | 228° |
| 2026-05-05 19:20 | 46.14705 | 5.40465 | 7260 ft | 263 kts | 228° |
| 2026-05-05 19:20 | 46.13473 | 5.38559 | 6864 ft | 262 kts | 228° |
| 2026-05-05 19:20 | 46.12233 | 5.36646 | 6427 ft | 262 kts | 227° |
| 2026-05-05 19:21 | 46.10987 | 5.34728 | 6051 ft | 261 kts | 226° |
| 2026-05-05 19:21 | 46.09775 | 5.32865 | 5873 ft | 250 kts | 226° |
| 2026-05-05 19:21 | 46.08593 | 5.31053 | 5703 ft | 241 kts | 226° |
| 2026-05-05 19:21 | 46.07461 | 5.29313 | 5422 ft | 238 kts | 227° |
| 2026-05-05 19:22 | 46.06341 | 5.27583 | 5080 ft | 238 kts | 226° |
| 2026-05-05 19:22 | 46.05219 | 5.25860 | 4973 ft | 237 kts | 226° |
| 2026-05-05 19:22 | 46.04080 | 5.24112 | 4965 ft | 240 kts | 226° |
| 2026-05-05 19:22 | 46.02950 | 5.22378 | 4935 ft | 237 kts | 227° |
| 2026-05-05 19:23 | 46.01821 | 5.20643 | 4704 ft | 234 kts | 226° |
| 2026-05-05 19:23 | 46.00738 | 5.18971 | 4542 ft | 225 kts | 226° |
| 2026-05-05 19:23 | 45.99689 | 5.17370 | 4345 ft | 219 kts | 226° |
| 2026-05-05 19:23 | 45.98660 | 5.15787 | 4110 ft | 215 kts | 226° |
| 2026-05-05 19:24 | 45.97632 | 5.14210 | 3806 ft | 215 kts | 226° |
| 2026-05-05 19:24 | 45.96620 | 5.12660 | 3499 ft | 214 kts | 226° |
| 2026-05-05 19:24 | 45.95603 | 5.11104 | 3204 ft | 212 kts | 225° |
| 2026-05-05 19:24 | 45.94597 | 5.09564 | 2998 ft | 210 kts | 225° |
| 2026-05-05 19:25 | 45.93588 | 5.08031 | 2996 ft | 210 kts | 220° |
| 2026-05-05 19:25 | 45.92365 | 5.07130 | 2973 ft | 190 kts | 189° |
| 2026-05-05 19:25 | 45.91114 | 5.07033 | 3049 ft | 181 kts | 178° |
| 2026-05-05 19:25 | 45.89848 | 5.07169 | 3013 ft | 180 kts | 175° |
| 2026-05-05 19:26 | 45.88596 | 5.07347 | 3005 ft | 181 kts | 175° |
| 2026-05-05 19:26 | 45.87353 | 5.07516 | 2991 ft | 180 kts | 175° |
| 2026-05-05 19:26 | 45.86100 | 5.07674 | 2992 ft | 180 kts | 175° |
| 2026-05-05 19:26 | 45.84850 | 5.07823 | 2961 ft | 180 kts | 176° |
| 2026-05-05 19:27 | 45.83660 | 5.07963 | 2765 ft | 166 kts | 176° |
| 2026-05-05 19:27 | 45.82558 | 5.08093 | 2565 ft | 151 kts | 176° |
| 2026-05-05 19:27 | 45.81551 | 5.08215 | 2349 ft | 140 kts | 176° |
| 2026-05-05 19:27 | 45.80584 | 5.08336 | 2167 ft | 139 kts | 176° |
| 2026-05-05 19:28 | 45.79625 | 5.08448 | 1990 ft | 139 kts | 176° |
| 2026-05-05 19:28 | 45.78667 | 5.08556 | 1808 ft | 138 kts | 176° |
| 2026-05-05 19:28 | 45.77699 | 5.08683 | 1628 ft | 138 kts | 177° |
| 2026-05-05 19:28 | 45.76743 | 5.08789 | 1446 ft | 138 kts | 176° |
| 2026-05-05 19:29 | 45.75795 | 5.08909 | 1240 ft | 137 kts | 177° |
| 2026-05-05 19:29 | 45.74849 | 5.09011 | 1077 ft | 136 kts | 176° |
| 2026-05-05 19:29 | 45.73915 | 5.09138 | 904 ft | 133 kts | 175° |
| 2026-05-05 19:29 | 45.73005 | 5.09251 | 794 ft | 125 kts | 176° |
| 2026-05-05 19:30 | 45.72293 | 5.09334 | 811 ft | 76 kts | 174° |
| 2026-05-05 19:30 | 45.71972 | 5.09371 | 818 ft | 31 kts | 176° |
| 2026-05-05 19:30 | 45.71773 | 5.09332 | 818 ft | 25 kts | 200° |
| 2026-05-05 19:30 | 45.71663 | 5.09253 | 818 ft | 13 kts | 220° |
| 2026-05-05 19:31 | 45.71632 | 5.09123 | 816 ft | 14 kts | 263° |
| 2026-05-05 19:31 | 45.71624 | 5.08973 | 813 ft | 12 kts | 265° |
| 2026-05-05 19:31 | 45.71617 | 5.08865 | 811 ft | 11 kts | 264° |
| 2026-05-05 19:31 | 45.71613 | 5.08803 | 810 ft | 0 kts | 264° |
| 2026-05-05 19:32 | 45.71612 | 5.08794 | 810 ft | 2 kts | 264° |
| 2026-05-05 19:32 | 45.71610 | 5.08752 | 809 ft | 5 kts | 264° |
| 2026-05-05 19:33 | 45.71605 | 5.08678 | 808 ft | 9 kts | 264° |
| 2026-05-05 19:33 | 45.71599 | 5.08570 | 806 ft | 12 kts | 269° |
| 2026-05-05 19:33 | 45.71661 | 5.08495 | 803 ft | 13 kts | 357° |
| 2026-05-05 19:33 | 45.71759 | 5.08485 | 803 ft | 14 kts | 355° |
| 2026-05-05 19:34 | 45.71865 | 5.08472 | 803 ft | 15 kts | 354° |
| 2026-05-05 19:34 | 45.71938 | 5.08431 | 801 ft | 12 kts | 303° |
| 2026-05-05 19:34 | 45.71965 | 5.08326 | 800 ft | 8 kts | 285° |
| 2026-05-05 19:35 | 45.71995 | 5.08175 | 797 ft | 6 kts | 286° |
| 2026-05-05 19:35 | 45.72018 | 5.08125 | 796 ft | 6 kts | 334° |
| 2026-05-05 19:35 | 45.72046 | 5.08110 | 796 ft | 0 kts | 341° |